createdAt,value
2023-01-26T00:03:47.821Z,31.20
2023-01-26T00:07:28.197Z,34.60
2023-01-26T00:11:05.135Z,33.40
2023-01-26T00:30:06.816Z,32.20
2023-01-26T01:12:41.043Z,31.30
2023-01-26T01:23:06.160Z,28.80
2023-01-26T01:53:51.248Z,32.60
2023-01-26T02:04:35.039Z,34.70
2023-01-26T02:07:37.302Z,35.10
2023-01-26T02:13:58.154Z,37.60
2023-01-26T02:20:34.077Z,36.30
2023-01-26T02:24:17.152Z,36.30
2023-01-26T02:40:47.068Z,37.40
2023-01-26T02:56:54.984Z,41.60
2023-01-26T03:00:12.487Z,37.30
2023-01-26T03:03:37.256Z,38.20
2023-01-26T03:06:42.257Z,39.70
2023-01-26T03:10:27.279Z,35.30
2023-01-26T03:46:33.274Z,40.70
2023-01-26T03:53:14.245Z,37.30
2023-01-26T04:00:29.177Z,37.20
2023-01-26T04:07:12.133Z,36.70
2023-01-26T04:10:57.766Z,36.60
2023-01-26T04:14:16.964Z,36.30
2023-01-26T04:20:08.463Z,35.80
2023-01-26T04:23:23.260Z,32.80
2023-01-26T04:26:35.313Z,33.60
2023-01-26T04:29:55.754Z,36.20
2023-01-26T04:36:44.733Z,32.80
2023-01-26T04:43:33.712Z,36.30
2023-01-26T04:47:13.928Z,36.40
2023-01-26T04:50:41.985Z,39.50
2023-01-26T05:18:10.784Z,35.80
2023-01-26T05:21:39.081Z,37.50
2023-01-26T05:24:59.212Z,38.00
2023-01-26T05:28:28.722Z,37.60
2023-01-26T05:45:22.661Z,34.70
2023-01-26T05:52:07.653Z,39.30
2023-01-26T05:55:27.613Z,35.60
2023-01-26T05:58:56.053Z,36.40
2023-01-26T06:02:09.714Z,35.40
2023-01-26T06:05:48.093Z,37.80
2023-01-26T06:12:29.352Z,34.90
2023-01-26T06:22:23.059Z,36.80
2023-01-26T06:25:26.565Z,34.80
2023-01-26T06:28:44.669Z,36.20
2023-01-26T06:42:14.702Z,37.00
2023-01-26T06:48:42.615Z,36.60
2023-01-26T06:52:18.289Z,36.70
2023-01-26T06:55:48.875Z,32.40
2023-01-26T06:59:12.653Z,38.90
2023-01-26T07:01:50.245Z,38.70
2023-01-26T07:04:40.804Z,38.20
2023-01-26T07:07:44.164Z,38.00
2023-01-26T07:11:09.083Z,34.00
2023-01-26T07:14:23.894Z,35.70
2023-01-26T07:17:29.146Z,32.20
2023-01-26T07:34:24.119Z,35.70
2023-01-26T08:09:45.008Z,32.40
2023-01-26T09:00:16.177Z,34.20
2023-01-26T09:03:46.345Z,33.80
2023-01-26T09:07:07.120Z,34.80
2023-01-26T09:10:45.987Z,36.90
2023-01-26T09:17:40.927Z,29.60
2023-01-26T09:21:07.904Z,31.50
2023-01-26T09:24:36.115Z,31.60
2023-01-26T09:40:53.134Z,29.90
2023-01-26T09:44:04.650Z,29.30
2023-01-26T09:47:25.378Z,30.40
2023-01-26T09:57:12.116Z,25.90
2023-01-26T10:00:41.987Z,25.30
2023-01-26T10:04:06.964Z,28.60
2023-01-26T10:08:09.870Z,29.40
2023-01-26T10:11:28.329Z,24.80
2023-01-26T10:14:45.583Z,25.60
2023-01-26T10:18:08.977Z,23.30
2023-01-26T10:21:29.430Z,23.40
2023-01-26T10:27:44.139Z,21.40
2023-01-26T10:31:07.421Z,25.10
2023-01-26T10:37:34.113Z,24.10
2023-01-26T10:40:58.191Z,29.00
2023-01-26T10:47:33.208Z,21.60
2023-01-26T10:51:02.333Z,23.30
2023-01-26T11:01:07.978Z,21.40
2023-01-26T11:04:20.075Z,21.40
2023-01-26T11:07:49.469Z,20.90
2023-01-26T11:18:04.686Z,23.80
2023-01-26T11:21:42.234Z,25.80
2023-01-26T11:25:10.835Z,24.70
2023-01-26T11:29:02.805Z,22.30
2023-01-26T11:32:06.836Z,23.00
2023-01-26T11:35:23.238Z,23.10
2023-01-26T11:38:35.770Z,23.20
2023-01-26T11:41:20.620Z,24.20
2023-01-26T11:44:39.612Z,25.40
2023-01-26T11:47:32.117Z,24.80
2023-01-26T11:50:18.608Z,24.60
2023-01-26T11:53:03.508Z,24.70
2023-01-26T11:56:17.150Z,25.10
2023-01-26T11:58:59.310Z,28.00
2023-01-26T12:02:03.373Z,26.60
2023-01-26T12:04:53.533Z,25.20
2023-01-26T12:07:55.797Z,26.40
2023-01-26T12:10:37.176Z,26.20
2023-01-26T12:13:21.928Z,28.10
2023-01-26T12:19:09.201Z,27.30
2023-01-26T12:21:41.746Z,27.70
2023-01-26T12:24:48.415Z,26.70
2023-01-26T12:27:56.343Z,26.80
2023-01-26T12:31:39.472Z,26.30
2023-01-26T12:35:28.369Z,28.30
2023-01-26T12:39:18.169Z,27.70
2023-01-26T12:43:00.556Z,28.40
2023-01-26T12:45:59.209Z,27.00
2023-01-26T12:49:18.389Z,25.10
2023-01-26T12:52:32.015Z,25.90
2023-01-26T12:55:38.908Z,23.00
2023-01-26T12:58:37.088Z,24.40
2023-01-26T13:01:19.585Z,24.00
2023-01-26T13:03:59.539Z,26.40
2023-01-26T13:07:10.409Z,25.70
2023-01-26T13:10:10.986Z,23.80
2023-01-26T13:13:02.539Z,23.30
2023-01-26T13:15:33.143Z,24.50
2023-01-26T13:18:17.937Z,24.60
2023-01-26T13:20:49.537Z,24.10
2023-01-26T13:23:44.289Z,23.00
2023-01-26T13:26:17.751Z,22.90
2023-01-26T13:28:48.288Z,21.30
2023-01-26T13:31:35.505Z,22.00
2023-01-26T13:34:10.379Z,22.80
2023-01-26T13:36:45.536Z,24.00
2023-01-26T13:39:27.831Z,25.30
2023-01-26T13:41:56.937Z,27.10
2023-01-26T13:44:40.977Z,30.90
2023-01-26T13:47:15.937Z,32.20
2023-01-26T13:49:47.664Z,30.00
2023-01-26T13:52:24.571Z,26.80
2023-01-26T13:54:57.099Z,27.70
2023-01-26T13:57:29.587Z,29.50
2023-01-26T14:00:00.776Z,30.70
2023-01-26T14:02:32.592Z,28.70
2023-01-26T14:05:04.832Z,29.50
2023-01-26T14:07:41.549Z,29.40
2023-01-26T14:10:42.577Z,26.50
2023-01-26T14:13:44.061Z,25.10
2023-01-26T14:16:36.197Z,29.70
2023-01-26T14:19:42.050Z,31.80
2023-01-26T14:22:31.981Z,29.70
2023-01-26T14:25:26.494Z,30.80
2023-01-26T14:28:18.427Z,30.00
2023-01-26T14:30:58.499Z,33.40
2023-01-26T14:33:32.569Z,30.10
2023-01-26T14:39:33.118Z,38.90
2023-01-26T14:42:38.824Z,34.10
2023-01-26T14:45:17.648Z,28.80
2023-01-26T14:48:13.266Z,28.90
2023-01-26T14:50:47.410Z,30.50
2023-01-26T14:53:22.856Z,30.70
2023-01-26T14:55:53.559Z,30.50
2023-01-26T14:58:28.583Z,29.60
2023-01-26T15:00:59.732Z,31.00
2023-01-26T15:03:41.944Z,30.30
2023-01-26T15:06:15.941Z,28.40
2023-01-26T15:09:01.265Z,30.30
2023-01-26T15:11:53.218Z,30.20
2023-01-26T15:14:37.039Z,28.90
2023-01-26T15:17:06.450Z,29.40
2023-01-26T15:19:42.551Z,30.20
2023-01-26T15:22:23.697Z,32.00
2023-01-26T15:25:04.901Z,30.50
2023-01-26T15:27:37.527Z,27.90
2023-01-26T15:30:08.456Z,30.50
2023-01-26T15:32:40.015Z,26.50
2023-01-26T15:35:20.566Z,26.30
2023-01-26T15:37:59.439Z,29.00
2023-01-26T15:40:31.234Z,29.20
2023-01-26T15:43:26.117Z,28.90
2023-01-26T15:45:57.914Z,27.20
2023-01-26T15:48:31.881Z,27.40
2023-01-26T15:51:01.479Z,25.20
2023-01-26T15:53:30.855Z,22.60
2023-01-26T15:56:01.136Z,20.40
2023-01-26T15:58:31.879Z,19.30
2023-01-26T16:01:02.947Z,19.10
2023-01-26T16:03:31.766Z,18.00
2023-01-26T16:06:39.196Z,18.20
2023-01-26T16:09:08.414Z,18.30
2023-01-26T16:11:43.546Z,20.50
2023-01-26T16:14:14.284Z,20.50
2023-01-26T16:16:46.641Z,25.60
2023-01-26T16:19:33.727Z,23.60
2023-01-26T16:22:04.421Z,22.40
2023-01-26T16:24:33.081Z,19.00
2023-01-26T16:27:04.067Z,22.00
2023-01-26T16:29:35.991Z,17.40
2023-01-26T16:32:36.039Z,17.90
2023-01-26T16:35:15.245Z,17.50
2023-01-26T16:37:44.585Z,18.10
2023-01-26T16:40:17.565Z,18.20
2023-01-26T16:42:51.641Z,18.10
2023-01-26T16:47:55.295Z,29.50
2023-01-26T16:50:25.498Z,26.60
2023-01-26T16:53:23.609Z,22.70
2023-01-26T16:55:56.668Z,23.70
2023-01-26T16:58:44.058Z,18.10
2023-01-26T17:01:30.460Z,17.70
2023-01-26T17:04:21.116Z,18.10
2023-01-26T17:07:39.118Z,14.70
2023-01-26T17:10:34.702Z,20.80
2023-01-26T17:13:18.874Z,20.20
2023-01-26T17:15:57.148Z,19.30
2023-01-26T17:18:27.041Z,17.20
2023-01-26T17:21:36.979Z,16.30
2023-01-26T17:24:11.718Z,16.50
2023-01-26T17:26:43.523Z,19.30
2023-01-26T17:29:18.241Z,18.40
2023-01-26T17:31:53.561Z,18.30
2023-01-26T17:34:24.907Z,17.80
2023-01-26T17:36:55.002Z,19.00
2023-01-26T17:39:29.246Z,17.40
2023-01-26T17:41:58.914Z,20.00
2023-01-26T17:44:29.832Z,19.00
2023-01-26T17:46:59.520Z,17.60
2023-01-26T17:49:28.917Z,19.40
2023-01-26T17:51:58.081Z,18.70
2023-01-26T17:54:27.616Z,20.30
2023-01-26T17:56:56.868Z,19.00
2023-01-26T17:59:26.127Z,18.50
2023-01-26T18:01:54.725Z,16.80
2023-01-26T18:04:23.678Z,18.30
2023-01-26T18:07:04.952Z,18.80
2023-01-26T18:09:35.212Z,17.70
2023-01-26T18:12:09.533Z,16.20
2023-01-26T18:14:39.070Z,15.40
2023-01-26T18:17:13.928Z,18.50
2023-01-26T18:19:43.217Z,16.60
2023-01-26T18:22:14.026Z,18.30
2023-01-26T18:24:42.813Z,18.10
2023-01-26T18:27:12.127Z,18.10
2023-01-26T18:29:41.218Z,19.00
2023-01-26T18:32:11.846Z,17.90
2023-01-26T18:34:44.381Z,19.30
2023-01-26T18:37:16.062Z,21.10
2023-01-26T18:39:45.470Z,20.20
2023-01-26T18:42:14.619Z,20.90
2023-01-26T18:44:44.829Z,19.10
2023-01-26T18:47:14.215Z,20.00
2023-01-26T18:49:42.937Z,21.20
2023-01-26T18:52:14.990Z,21.50
2023-01-26T18:54:45.056Z,20.40
2023-01-26T18:57:19.079Z,22.20
2023-01-26T18:59:49.805Z,21.70
2023-01-26T19:02:19.820Z,21.50
2023-01-26T19:04:54.017Z,19.60
2023-01-26T19:07:25.900Z,22.00
2023-01-26T19:09:57.398Z,20.20
2023-01-26T19:12:28.779Z,23.50
2023-01-26T19:15:00.892Z,25.60
2023-01-26T19:17:34.377Z,25.00
2023-01-26T19:20:04.986Z,21.40
2023-01-26T19:22:35.178Z,22.10
2023-01-26T19:25:06.467Z,25.10
2023-01-26T19:27:36.341Z,22.70
2023-01-26T19:30:07.192Z,22.70
2023-01-26T19:32:37.418Z,23.50
2023-01-26T19:35:10.164Z,22.60
2023-01-26T19:37:42.130Z,24.70
2023-01-26T19:40:13.859Z,22.80
2023-01-26T19:42:44.297Z,23.00
2023-01-26T19:45:14.836Z,20.20
2023-01-26T19:47:48.620Z,21.30
2023-01-26T19:50:19.149Z,20.90
2023-01-26T19:52:49.010Z,21.30
2023-01-26T19:55:18.348Z,23.80
2023-01-26T19:57:48.457Z,24.40
2023-01-26T20:00:21.287Z,28.80
2023-01-26T20:02:51.618Z,27.80
2023-01-26T20:05:24.074Z,25.80
2023-01-26T20:07:54.791Z,24.70
2023-01-26T20:10:26.682Z,29.60
2023-01-26T20:12:59.897Z,29.80
2023-01-26T20:15:30.629Z,31.90
2023-01-26T20:18:01.625Z,29.60
2023-01-26T20:20:36.657Z,27.10
2023-01-26T20:23:10.033Z,26.40
2023-01-26T20:25:40.025Z,26.20
2023-01-26T20:28:10.424Z,26.40
2023-01-26T20:30:45.702Z,37.90
2023-01-26T20:33:15.651Z,31.70
2023-01-26T20:35:47.108Z,35.20
2023-01-26T20:38:17.438Z,26.00
2023-01-26T20:40:47.821Z,23.80
2023-01-26T20:43:19.998Z,27.40
2023-01-26T20:45:50.481Z,28.60
2023-01-26T20:48:20.370Z,24.20
2023-01-26T20:50:49.189Z,32.50
2023-01-26T20:53:20.301Z,25.10
2023-01-26T20:55:50.240Z,23.20
2023-01-26T20:58:23.579Z,29.40
2023-01-26T21:00:53.240Z,22.10
2023-01-26T21:03:26.707Z,32.00
2023-01-26T21:06:13.511Z,25.10
2023-01-26T21:08:43.147Z,22.90
2023-01-26T21:11:14.844Z,27.60
2023-01-26T21:13:47.175Z,25.30
2023-01-26T21:16:17.593Z,26.00
2023-01-26T21:18:49.667Z,25.80
2023-01-26T21:21:19.190Z,29.50
2023-01-26T21:23:49.688Z,26.90
2023-01-26T21:26:22.312Z,28.10
2023-01-26T21:28:53.255Z,27.20
2023-01-26T21:31:25.589Z,29.30
2023-01-26T21:33:55.309Z,30.10
2023-01-26T21:36:26.778Z,28.90
2023-01-26T21:38:59.116Z,30.40
2023-01-26T21:41:51.427Z,27.20
2023-01-26T21:44:23.850Z,27.10
2023-01-26T21:46:55.448Z,26.90
2023-01-26T21:49:25.644Z,28.80
2023-01-26T21:52:12.947Z,28.20
2023-01-26T21:54:42.255Z,25.00
2023-01-26T21:57:30.053Z,25.80
2023-01-26T21:59:58.809Z,24.60
2023-01-26T22:02:27.209Z,23.60
2023-01-26T22:04:56.467Z,25.80
2023-01-26T22:07:28.403Z,25.90
2023-01-26T22:09:56.951Z,26.10
2023-01-26T22:12:25.460Z,23.70
2023-01-26T22:14:54.217Z,24.60
2023-01-26T22:17:23.336Z,21.20
2023-01-26T22:19:52.535Z,23.20
2023-01-26T22:22:21.114Z,22.20
2023-01-26T22:24:49.567Z,21.30
2023-01-26T22:27:18.443Z,22.90
2023-01-26T22:29:46.985Z,20.70
2023-01-26T22:32:19.259Z,21.70
2023-01-26T22:34:48.256Z,21.50
2023-01-26T22:37:17.267Z,20.20
2023-01-26T22:39:46.168Z,20.80
2023-01-26T22:42:14.920Z,19.00
2023-01-26T22:44:43.367Z,19.40
2023-01-26T22:47:12.409Z,20.80
2023-01-26T22:49:41.276Z,20.60
2023-01-26T22:52:10.297Z,21.20
2023-01-26T22:54:39.065Z,22.50
2023-01-26T22:57:07.616Z,22.30
2023-01-26T22:59:36.116Z,23.00
2023-01-26T23:02:05.077Z,21.70
2023-01-26T23:04:34.428Z,21.40
2023-01-26T23:07:38.103Z,23.90
2023-01-26T23:10:07.585Z,21.70
2023-01-26T23:12:36.076Z,26.60
2023-01-26T23:15:05.156Z,25.20
2023-01-26T23:17:33.936Z,23.70
2023-01-26T23:20:03.237Z,25.60
2023-01-26T23:22:32.376Z,24.10
2023-01-26T23:25:19.668Z,25.80
2023-01-26T23:27:48.582Z,24.70
2023-01-26T23:30:17.656Z,24.50
2023-01-26T23:32:46.115Z,28.70
2023-01-26T23:35:15.017Z,27.80
2023-01-26T23:37:44.228Z,26.90
2023-01-26T23:40:14.214Z,23.50
2023-01-26T23:42:58.017Z,26.20
2023-01-26T23:45:32.047Z,24.10
2023-01-26T23:48:01.338Z,25.60
2023-01-26T23:50:30.949Z,25.50
2023-01-26T23:52:59.646Z,26.60
2023-01-26T23:55:29.016Z,30.60
2023-01-26T23:57:57.658Z,27.90
